sensor_id;sensor_type;location;lat;lon;timestamp;temperature;humidity
9209;DHT22;4639;48.862;9.188;2023-04-16T00:01:32;8.40;99.90
9209;DHT22;4639;48.862;9.188;2023-04-16T00:03:57;8.40;99.90
9209;DHT22;4639;48.862;9.188;2023-04-16T00:06:23;8.40;99.90
9209;DHT22;4639;48.862;9.188;2023-04-16T00:08:49;8.30;99.90
9209;DHT22;4639;48.862;9.188;2023-04-16T00:11:16;8.30;99.90
9209;DHT22;4639;48.862;9.188;2023-04-16T00:13:41;8.30;99.90
9209;DHT22;4639;48.862;9.188;2023-04-16T00:16:10;8.40;99.90
9209;DHT22;4639;48.862;9.188;2023-04-16T00:18:35;8.40;99.90
9209;DHT22;4639;48.862;9.188;2023-04-16T00:21:01;8.40;99.90
9209;DHT22;4639;48.862;9.188;2023-04-16T00:23:27;8.40;99.90
9209;DHT22;4639;48.862;9.188;2023-04-16T00:25:52;8.40;99.90
9209;DHT22;4639;48.862;9.188;2023-04-16T00:28:18;8.40;99.90
9209;DHT22;4639;48.862;9.188;2023-04-16T00:30:44;8.40;99.90
9209;DHT22;4639;48.862;9.188;2023-04-16T00:33:09;8.40;99.90
9209;DHT22;4639;48.862;9.188;2023-04-16T00:35:35;8.40;99.90
9209;DHT22;4639;48.862;9.188;2023-04-16T00:38:00;8.40;99.90
9209;DHT22;4639;48.862;9.188;2023-04-16T00:40:27;8.40;99.90
9209;DHT22;4639;48.862;9.188;2023-04-16T00:42:53;8.40;99.90
9209;DHT22;4639;48.862;9.188;2023-04-16T00:45:19;8.40;99.90
9209;DHT22;4639;48.862;9.188;2023-04-16T00:47:44;8.40;99.90
9209;DHT22;4639;48.862;9.188;2023-04-16T00:50:10;8.40;99.90
9209;DHT22;4639;48.862;9.188;2023-04-16T00:52:37;8.40;99.90
9209;DHT22;4639;48.862;9.188;2023-04-16T00:55:04;8.40;99.90
9209;DHT22;4639;48.862;9.188;2023-04-16T00:57:30;8.40;99.90
9209;DHT22;4639;48.862;9.188;2023-04-16T00:59:56;8.40;99.90
9209;DHT22;4639;48.862;9.188;2023-04-16T01:02:22;8.30;99.90
9209;DHT22;4639;48.862;9.188;2023-04-16T01:04:48;8.30;99.90
9209;DHT22;4639;48.862;9.188;2023-04-16T01:07:14;8.30;99.90
9209;DHT22;4639;48.862;9.188;2023-04-16T01:09:40;8.30;99.90
9209;DHT22;4639;48.862;9.188;2023-04-16T01:12:05;8.30;99.90
9209;DHT22;4639;48.862;9.188;2023-04-16T01:14:31;8.40;99.90
9209;DHT22;4639;48.862;9.188;2023-04-16T01:17:01;8.40;99.90
9209;DHT22;4639;48.862;9.188;2023-04-16T01:19:27;8.40;99.90
9209;DHT22;4639;48.862;9.188;2023-04-16T01:21:55;8.40;99.90
9209;DHT22;4639;48.862;9.188;2023-04-16T01:24:21;8.40;99.90
9209;DHT22;4639;48.862;9.188;2023-04-16T01:26:46;8.40;99.90
9209;DHT22;4639;48.862;9.188;2023-04-16T01:29:12;8.40;99.90
9209;DHT22;4639;48.862;9.188;2023-04-16T01:31:37;8.40;99.90
9209;DHT22;4639;48.862;9.188;2023-04-16T01:34:03;8.30;99.90
9209;DHT22;4639;48.862;9.188;2023-04-16T01:36:29;8.30;99.90
9209;DHT22;4639;48.862;9.188;2023-04-16T01:38:54;8.40;99.90
9209;DHT22;4639;48.862;9.188;2023-04-16T01:41:21;8.20;99.90
9209;DHT22;4639;48.862;9.188;2023-04-16T01:43:46;8.20;99.90
9209;DHT22;4639;48.862;9.188;2023-04-16T01:46:26;8.20;99.90
9209;DHT22;4639;48.862;9.188;2023-04-16T01:48:53;8.30;99.90
9209;DHT22;4639;48.862;9.188;2023-04-16T01:51:19;8.30;99.90
9209;DHT22;4639;48.862;9.188;2023-04-16T01:53:45;8.40;99.90
9209;DHT22;4639;48.862;9.188;2023-04-16T01:56:11;8.40;99.90
9209;DHT22;4639;48.862;9.188;2023-04-16T01:58:36;8.40;99.90
9209;DHT22;4639;48.862;9.188;2023-04-16T02:01:03;8.40;99.90
9209;DHT22;4639;48.862;9.188;2023-04-16T02:03:30;8.40;99.90
9209;DHT22;4639;48.862;9.188;2023-04-16T02:05:55;8.40;99.90
9209;DHT22;4639;48.862;9.188;2023-04-16T02:08:21;8.50;99.90
9209;DHT22;4639;48.862;9.188;2023-04-16T02:10:48;8.40;99.90
9209;DHT22;4639;48.862;9.188;2023-04-16T02:13:15;8.50;99.90
9209;DHT22;4639;48.862;9.188;2023-04-16T02:15:47;8.50;99.90
9209;DHT22;4639;48.862;9.188;2023-04-16T02:18:14;8.50;99.90
9209;DHT22;4639;48.862;9.188;2023-04-16T02:20:43;8.50;99.90
9209;DHT22;4639;48.862;9.188;2023-04-16T02:23:10;8.50;99.90
9209;DHT22;4639;48.862;9.188;2023-04-16T02:25:45;8.40;99.90
9209;DHT22;4639;48.862;9.188;2023-04-16T02:28:13;8.40;99.90
9209;DHT22;4639;48.862;9.188;2023-04-16T02:30:40;8.30;99.90
9209;DHT22;4639;48.862;9.188;2023-04-16T02:33:07;8.30;99.90
9209;DHT22;4639;48.862;9.188;2023-04-16T02:35:33;8.20;99.90
9209;DHT22;4639;48.862;9.188;2023-04-16T02:37:59;8.30;99.90
9209;DHT22;4639;48.862;9.188;2023-04-16T02:40:26;8.30;99.90
9209;DHT22;4639;48.862;9.188;2023-04-16T02:42:52;8.30;99.90
9209;DHT22;4639;48.862;9.188;2023-04-16T02:45:18;8.30;99.90
9209;DHT22;4639;48.862;9.188;2023-04-16T02:47:44;8.30;99.90
9209;DHT22;4639;48.862;9.188;2023-04-16T02:50:10;8.30;99.90
9209;DHT22;4639;48.862;9.188;2023-04-16T02:52:36;8.30;99.90
9209;DHT22;4639;48.862;9.188;2023-04-16T02:55:01;8.30;99.90
9209;DHT22;4639;48.862;9.188;2023-04-16T02:57:27;8.30;99.90
9209;DHT22;4639;48.862;9.188;2023-04-16T02:59:52;8.30;99.90
9209;DHT22;4639;48.862;9.188;2023-04-16T03:02:18;8.20;99.90
9209;DHT22;4639;48.862;9.188;2023-04-16T03:04:44;8.30;99.90
9209;DHT22;4639;48.862;9.188;2023-04-16T03:07:10;8.30;99.90
9209;DHT22;4639;48.862;9.188;2023-04-16T03:09:37;8.30;99.90
9209;DHT22;4639;48.862;9.188;2023-04-16T03:12:03;8.20;99.90
9209;DHT22;4639;48.862;9.188;2023-04-16T03:14:29;8.20;99.90
9209;DHT22;4639;48.862;9.188;2023-04-16T03:16:55;8.20;99.90
9209;DHT22;4639;48.862;9.188;2023-04-16T03:19:20;8.20;99.90
9209;DHT22;4639;48.862;9.188;2023-04-16T03:21:46;8.20;99.90
9209;DHT22;4639;48.862;9.188;2023-04-16T03:24:11;8.20;99.90
9209;DHT22;4639;48.862;9.188;2023-04-16T03:26:37;8.20;99.90
9209;DHT22;4639;48.862;9.188;2023-04-16T03:29:03;8.10;99.90
9209;DHT22;4639;48.862;9.188;2023-04-16T03:31:29;8.20;99.90
9209;DHT22;4639;48.862;9.188;2023-04-16T03:33:54;8.20;99.90
9209;DHT22;4639;48.862;9.188;2023-04-16T03:36:20;8.20;99.90
9209;DHT22;4639;48.862;9.188;2023-04-16T03:38:47;8.20;99.90
9209;DHT22;4639;48.862;9.188;2023-04-16T03:41:13;8.20;99.90
9209;DHT22;4639;48.862;9.188;2023-04-16T03:43:38;8.20;99.90
9209;DHT22;4639;48.862;9.188;2023-04-16T03:46:04;8.20;99.90
9209;DHT22;4639;48.862;9.188;2023-04-16T03:48:30;8.20;99.90
9209;DHT22;4639;48.862;9.188;2023-04-16T03:50:55;8.20;99.90
9209;DHT22;4639;48.862;9.188;2023-04-16T03:53:21;8.20;99.90
9209;DHT22;4639;48.862;9.188;2023-04-16T03:55:49;8.30;99.90
9209;DHT22;4639;48.862;9.188;2023-04-16T03:58:16;8.20;99.90
9209;DHT22;4639;48.862;9.188;2023-04-16T04:00:41;8.20;99.90
9209;DHT22;4639;48.862;9.188;2023-04-16T04:03:08;8.30;99.90
9209;DHT22;4639;48.862;9.188;2023-04-16T04:05:39;8.30;99.90
9209;DHT22;4639;48.862;9.188;2023-04-16T04:08:05;8.20;99.90
9209;DHT22;4639;48.862;9.188;2023-04-16T04:10:32;8.20;99.90
9209;DHT22;4639;48.862;9.188;2023-04-16T04:12:57;8.20;99.90
9209;DHT22;4639;48.862;9.188;2023-04-16T04:15:23;8.30;99.90
9209;DHT22;4639;48.862;9.188;2023-04-16T04:17:48;8.20;99.90
9209;DHT22;4639;48.862;9.188;2023-04-16T04:20:14;8.20;99.90
9209;DHT22;4639;48.862;9.188;2023-04-16T04:22:40;8.20;99.90
9209;DHT22;4639;48.862;9.188;2023-04-16T04:25:08;8.20;99.90
9209;DHT22;4639;48.862;9.188;2023-04-16T04:27:34;8.20;99.90
9209;DHT22;4639;48.862;9.188;2023-04-16T04:30:00;8.10;99.90
9209;DHT22;4639;48.862;9.188;2023-04-16T04:32:25;8.10;99.90
9209;DHT22;4639;48.862;9.188;2023-04-16T04:34:51;8.10;99.90
9209;DHT22;4639;48.862;9.188;2023-04-16T04:37:16;8.10;99.90
9209;DHT22;4639;48.862;9.188;2023-04-16T04:39:42;8.10;99.90
9209;DHT22;4639;48.862;9.188;2023-04-16T04:42:08;8.10;99.90
9209;DHT22;4639;48.862;9.188;2023-04-16T04:44:33;8.10;99.90
9209;DHT22;4639;48.862;9.188;2023-04-16T04:46:59;8.10;99.90
9209;DHT22;4639;48.862;9.188;2023-04-16T04:49:24;8.20;99.90
9209;DHT22;4639;48.862;9.188;2023-04-16T04:51:50;8.20;99.90
9209;DHT22;4639;48.862;9.188;2023-04-16T04:54:15;8.20;99.90
9209;DHT22;4639;48.862;9.188;2023-04-16T04:56:41;8.20;99.90
9209;DHT22;4639;48.862;9.188;2023-04-16T04:59:09;8.10;99.90
9209;DHT22;4639;48.862;9.188;2023-04-16T05:01:35;8.10;99.90
9209;DHT22;4639;48.862;9.188;2023-04-16T05:04:01;8.10;99.90
9209;DHT22;4639;48.862;9.188;2023-04-16T05:06:26;8.10;99.90
9209;DHT22;4639;48.862;9.188;2023-04-16T05:08:55;8.10;99.90
9209;DHT22;4639;48.862;9.188;2023-04-16T05:11:21;8.10;99.90
9209;DHT22;4639;48.862;9.188;2023-04-16T05:13:46;8.10;99.90
9209;DHT22;4639;48.862;9.188;2023-04-16T05:16:12;8.00;99.90
9209;DHT22;4639;48.862;9.188;2023-04-16T05:18:37;8.10;99.90
9209;DHT22;4639;48.862;9.188;2023-04-16T05:21:03;8.10;99.90
9209;DHT22;4639;48.862;9.188;2023-04-16T05:23:29;8.10;99.90
9209;DHT22;4639;48.862;9.188;2023-04-16T05:25:54;8.20;99.90
9209;DHT22;4639;48.862;9.188;2023-04-16T05:28:20;8.20;99.90
9209;DHT22;4639;48.862;9.188;2023-04-16T05:30:45;8.20;99.90
9209;DHT22;4639;48.862;9.188;2023-04-16T05:33:11;8.20;99.90
9209;DHT22;4639;48.862;9.188;2023-04-16T05:35:36;8.20;99.90
9209;DHT22;4639;48.862;9.188;2023-04-16T05:38:02;8.10;99.90
9209;DHT22;4639;48.862;9.188;2023-04-16T05:40:28;8.10;99.90
9209;DHT22;4639;48.862;9.188;2023-04-16T05:42:54;8.10;99.90
9209;DHT22;4639;48.862;9.188;2023-04-16T05:45:20;8.10;99.90
9209;DHT22;4639;48.862;9.188;2023-04-16T05:47:45;8.20;99.90
9209;DHT22;4639;48.862;9.188;2023-04-16T05:50:11;8.10;99.90
9209;DHT22;4639;48.862;9.188;2023-04-16T05:52:37;8.10;99.90
9209;DHT22;4639;48.862;9.188;2023-04-16T05:55:03;8.20;99.90
9209;DHT22;4639;48.862;9.188;2023-04-16T05:57:28;8.20;99.90
9209;DHT22;4639;48.862;9.188;2023-04-16T05:59:54;8.20;99.90
9209;DHT22;4639;48.862;9.188;2023-04-16T06:02:20;8.20;99.90
9209;DHT22;4639;48.862;9.188;2023-04-16T06:04:45;8.10;99.90
9209;DHT22;4639;48.862;9.188;2023-04-16T06:07:11;8.10;99.90
9209;DHT22;4639;48.862;9.188;2023-04-16T06:09:37;8.10;99.90
9209;DHT22;4639;48.862;9.188;2023-04-16T06:12:02;8.10;99.90
9209;DHT22;4639;48.862;9.188;2023-04-16T06:14:28;8.20;99.90
9209;DHT22;4639;48.862;9.188;2023-04-16T06:16:54;8.20;99.90
9209;DHT22;4639;48.862;9.188;2023-04-16T06:19:19;8.20;99.90
9209;DHT22;4639;48.862;9.188;2023-04-16T06:21:45;8.20;99.90
9209;DHT22;4639;48.862;9.188;2023-04-16T06:24:10;8.20;99.90
9209;DHT22;4639;48.862;9.188;2023-04-16T06:26:37;8.20;99.90
9209;DHT22;4639;48.862;9.188;2023-04-16T06:29:03;8.30;99.90
9209;DHT22;4639;48.862;9.188;2023-04-16T06:31:29;8.30;99.90
9209;DHT22;4639;48.862;9.188;2023-04-16T06:33:55;8.30;99.90
9209;DHT22;4639;48.862;9.188;2023-04-16T06:36:20;8.30;99.90
9209;DHT22;4639;48.862;9.188;2023-04-16T06:38:46;8.30;99.90
9209;DHT22;4639;48.862;9.188;2023-04-16T06:41:13;8.30;99.90
9209;DHT22;4639;48.862;9.188;2023-04-16T06:43:38;8.30;99.90
9209;DHT22;4639;48.862;9.188;2023-04-16T06:46:04;8.30;99.90
9209;DHT22;4639;48.862;9.188;2023-04-16T06:48:30;8.20;99.90
9209;DHT22;4639;48.862;9.188;2023-04-16T06:50:55;8.30;99.90
9209;DHT22;4639;48.862;9.188;2023-04-16T06:53:22;8.20;99.90
9209;DHT22;4639;48.862;9.188;2023-04-16T06:55:47;8.30;99.90
9209;DHT22;4639;48.862;9.188;2023-04-16T06:58:13;8.40;99.90
9209;DHT22;4639;48.862;9.188;2023-04-16T07:00:38;8.40;99.90
9209;DHT22;4639;48.862;9.188;2023-04-16T07:03:04;8.30;99.90
9209;DHT22;4639;48.862;9.188;2023-04-16T07:05:30;8.20;99.90
9209;DHT22;4639;48.862;9.188;2023-04-16T07:07:56;8.20;99.90
9209;DHT22;4639;48.862;9.188;2023-04-16T07:10:22;8.20;99.90
9209;DHT22;4639;48.862;9.188;2023-04-16T07:12:47;8.30;99.90
9209;DHT22;4639;48.862;9.188;2023-04-16T07:15:13;8.40;99.90
9209;DHT22;4639;48.862;9.188;2023-04-16T07:17:39;8.50;99.90
9209;DHT22;4639;48.862;9.188;2023-04-16T07:20:05;8.50;99.90
9209;DHT22;4639;48.862;9.188;2023-04-16T07:22:30;8.50;99.90
9209;DHT22;4639;48.862;9.188;2023-04-16T07:24:56;8.50;99.90
9209;DHT22;4639;48.862;9.188;2023-04-16T07:27:22;8.50;99.90
9209;DHT22;4639;48.862;9.188;2023-04-16T07:29:47;8.50;99.90
9209;DHT22;4639;48.862;9.188;2023-04-16T07:32:14;8.50;99.90
9209;DHT22;4639;48.862;9.188;2023-04-16T07:34:40;8.60;99.90
9209;DHT22;4639;48.862;9.188;2023-04-16T07:37:06;8.60;99.90
9209;DHT22;4639;48.862;9.188;2023-04-16T07:39:31;8.60;99.90
9209;DHT22;4639;48.862;9.188;2023-04-16T07:41:57;8.60;99.90
9209;DHT22;4639;48.862;9.188;2023-04-16T07:44:22;8.60;99.90
9209;DHT22;4639;48.862;9.188;2023-04-16T07:46:48;8.50;99.90
9209;DHT22;4639;48.862;9.188;2023-04-16T07:49:14;8.50;99.90
9209;DHT22;4639;48.862;9.188;2023-04-16T07:51:39;8.50;99.90
9209;DHT22;4639;48.862;9.188;2023-04-16T07:54:05;8.50;99.90
9209;DHT22;4639;48.862;9.188;2023-04-16T07:56:31;8.60;99.90
9209;DHT22;4639;48.862;9.188;2023-04-16T07:58:56;8.50;99.90
9209;DHT22;4639;48.862;9.188;2023-04-16T08:01:22;8.50;99.90
9209;DHT22;4639;48.862;9.188;2023-04-16T08:03:47;8.50;99.90
9209;DHT22;4639;48.862;9.188;2023-04-16T08:06:13;8.50;99.90
9209;DHT22;4639;48.862;9.188;2023-04-16T08:08:38;8.60;99.90
9209;DHT22;4639;48.862;9.188;2023-04-16T08:11:04;8.60;99.90
9209;DHT22;4639;48.862;9.188;2023-04-16T08:13:30;8.60;99.90
9209;DHT22;4639;48.862;9.188;2023-04-16T08:15:55;8.70;99.90
9209;DHT22;4639;48.862;9.188;2023-04-16T08:18:21;8.80;99.90
9209;DHT22;4639;48.862;9.188;2023-04-16T08:20:46;8.80;99.90
9209;DHT22;4639;48.862;9.188;2023-04-16T08:23:12;8.80;99.90
9209;DHT22;4639;48.862;9.188;2023-04-16T08:25:37;8.80;99.90
9209;DHT22;4639;48.862;9.188;2023-04-16T08:28:03;8.80;99.90
9209;DHT22;4639;48.862;9.188;2023-04-16T08:30:29;8.80;99.90
9209;DHT22;4639;48.862;9.188;2023-04-16T08:32:55;8.70;99.90
9209;DHT22;4639;48.862;9.188;2023-04-16T08:35:20;8.70;99.90
9209;DHT22;4639;48.862;9.188;2023-04-16T08:37:46;8.80;99.90
9209;DHT22;4639;48.862;9.188;2023-04-16T08:40:11;8.80;99.90
9209;DHT22;4639;48.862;9.188;2023-04-16T08:42:53;8.70;99.90
9209;DHT22;4639;48.862;9.188;2023-04-16T08:45:20;8.70;99.90
9209;DHT22;4639;48.862;9.188;2023-04-16T08:47:48;8.70;99.90
9209;DHT22;4639;48.862;9.188;2023-04-16T08:50:15;8.70;99.90
9209;DHT22;4639;48.862;9.188;2023-04-16T08:52:52;8.70;99.90
9209;DHT22;4639;48.862;9.188;2023-04-16T08:55:22;8.80;99.90
9209;DHT22;4639;48.862;9.188;2023-04-16T08:57:53;8.80;99.90
9209;DHT22;4639;48.862;9.188;2023-04-16T09:00:19;8.90;99.90
9209;DHT22;4639;48.862;9.188;2023-04-16T09:02:45;8.90;99.90
9209;DHT22;4639;48.862;9.188;2023-04-16T09:05:14;8.90;99.90
9209;DHT22;4639;48.862;9.188;2023-04-16T09:07:45;8.90;99.90
9209;DHT22;4639;48.862;9.188;2023-04-16T09:10:11;9.00;99.90
9209;DHT22;4639;48.862;9.188;2023-04-16T09:12:40;9.00;99.90
9209;DHT22;4639;48.862;9.188;2023-04-16T09:15:07;8.90;99.90
9209;DHT22;4639;48.862;9.188;2023-04-16T09:17:33;8.90;99.90
9209;DHT22;4639;48.862;9.188;2023-04-16T09:19:59;9.00;99.90
9209;DHT22;4639;48.862;9.188;2023-04-16T09:22:25;9.00;99.90
9209;DHT22;4639;48.862;9.188;2023-04-16T09:24:51;9.00;99.90
9209;DHT22;4639;48.862;9.188;2023-04-16T09:27:16;9.10;99.90
9209;DHT22;4639;48.862;9.188;2023-04-16T09:29:42;9.10;99.90
9209;DHT22;4639;48.862;9.188;2023-04-16T09:32:09;9.00;99.90
9209;DHT22;4639;48.862;9.188;2023-04-16T09:37:21;9.10;99.90
9209;DHT22;4639;48.862;9.188;2023-04-16T09:39:58;9.10;99.90
9209;DHT22;4639;48.862;9.188;2023-04-16T09:42:25;9.10;99.90
9209;DHT22;4639;48.862;9.188;2023-04-16T09:44:52;9.10;99.90
9209;DHT22;4639;48.862;9.188;2023-04-16T09:47:18;9.10;99.90
9209;DHT22;4639;48.862;9.188;2023-04-16T09:49:44;9.10;99.90
9209;DHT22;4639;48.862;9.188;2023-04-16T09:52:16;9.10;99.90
9209;DHT22;4639;48.862;9.188;2023-04-16T09:54:48;9.00;99.90
9209;DHT22;4639;48.862;9.188;2023-04-16T09:57:21;9.10;99.90
9209;DHT22;4639;48.862;9.188;2023-04-16T09:59:54;9.10;99.90
9209;DHT22;4639;48.862;9.188;2023-04-16T10:02:29;9.20;99.90
9209;DHT22;4639;48.862;9.188;2023-04-16T10:04:55;9.20;99.90
9209;DHT22;4639;48.862;9.188;2023-04-16T10:07:22;9.30;99.90
9209;DHT22;4639;48.862;9.188;2023-04-16T10:09:52;9.40;99.90
9209;DHT22;4639;48.862;9.188;2023-04-16T10:12:19;9.40;99.90
9209;DHT22;4639;48.862;9.188;2023-04-16T10:14:45;9.30;99.90
9209;DHT22;4639;48.862;9.188;2023-04-16T10:17:10;9.30;99.90
9209;DHT22;4639;48.862;9.188;2023-04-16T10:19:36;9.20;99.90
9209;DHT22;4639;48.862;9.188;2023-04-16T10:22:02;9.20;99.90
9209;DHT22;4639;48.862;9.188;2023-04-16T10:24:32;9.30;99.90
9209;DHT22;4639;48.862;9.188;2023-04-16T10:26:59;9.20;99.90
9209;DHT22;4639;48.862;9.188;2023-04-16T10:29:26;9.20;99.90
9209;DHT22;4639;48.862;9.188;2023-04-16T10:31:53;9.20;99.90
9209;DHT22;4639;48.862;9.188;2023-04-16T10:34:20;9.20;99.90
9209;DHT22;4639;48.862;9.188;2023-04-16T10:36:50;9.30;99.90
9209;DHT22;4639;48.862;9.188;2023-04-16T10:39:22;9.40;99.90
9209;DHT22;4639;48.862;9.188;2023-04-16T10:41:49;9.30;99.90
9209;DHT22;4639;48.862;9.188;2023-04-16T10:44:17;9.20;99.90
9209;DHT22;4639;48.862;9.188;2023-04-16T10:46:47;9.10;99.90
9209;DHT22;4639;48.862;9.188;2023-04-16T10:49:22;9.10;99.90
9209;DHT22;4639;48.862;9.188;2023-04-16T10:52:06;9.10;99.90
9209;DHT22;4639;48.862;9.188;2023-04-16T10:54:34;9.20;99.90
9209;DHT22;4639;48.862;9.188;2023-04-16T10:57:04;9.20;99.90
9209;DHT22;4639;48.862;9.188;2023-04-16T10:59:32;9.20;99.90
9209;DHT22;4639;48.862;9.188;2023-04-16T11:02:00;9.20;99.90
9209;DHT22;4639;48.862;9.188;2023-04-16T11:04:28;9.20;99.90
9209;DHT22;4639;48.862;9.188;2023-04-16T11:09:55;9.30;99.90
9209;DHT22;4639;48.862;9.188;2023-04-16T11:12:44;9.30;99.90
9209;DHT22;4639;48.862;9.188;2023-04-16T11:15:12;9.40;99.90
9209;DHT22;4639;48.862;9.188;2023-04-16T11:17:45;9.50;99.90
9209;DHT22;4639;48.862;9.188;2023-04-16T11:20:24;9.30;99.90
9209;DHT22;4639;48.862;9.188;2023-04-16T11:22:54;9.20;99.90
9209;DHT22;4639;48.862;9.188;2023-04-16T11:25:24;9.20;99.90
9209;DHT22;4639;48.862;9.188;2023-04-16T11:27:51;9.20;99.90
9209;DHT22;4639;48.862;9.188;2023-04-16T11:30:18;9.20;99.90
9209;DHT22;4639;48.862;9.188;2023-04-16T11:32:44;9.30;99.90
9209;DHT22;4639;48.862;9.188;2023-04-16T11:35:15;9.30;99.90
9209;DHT22;4639;48.862;9.188;2023-04-16T11:37:41;9.30;99.90
9209;DHT22;4639;48.862;9.188;2023-04-16T11:40:07;9.30;99.90
9209;DHT22;4639;48.862;9.188;2023-04-16T11:42:37;9.40;99.90
9209;DHT22;4639;48.862;9.188;2023-04-16T11:45:06;9.30;99.90
9209;DHT22;4639;48.862;9.188;2023-04-16T11:47:44;9.30;99.90
9209;DHT22;4639;48.862;9.188;2023-04-16T11:50:26;9.30;99.90
9209;DHT22;4639;48.862;9.188;2023-04-16T11:52:54;9.40;99.90
9209;DHT22;4639;48.862;9.188;2023-04-16T11:55:21;9.30;99.90
9209;DHT22;4639;48.862;9.188;2023-04-16T11:57:47;9.30;99.90
9209;DHT22;4639;48.862;9.188;2023-04-16T12:00:13;9.30;99.90
9209;DHT22;4639;48.862;9.188;2023-04-16T12:02:41;9.40;99.90
9209;DHT22;4639;48.862;9.188;2023-04-16T12:07:54;9.60;99.90
9209;DHT22;4639;48.862;9.188;2023-04-16T12:10:20;9.60;99.90
9209;DHT22;4639;48.862;9.188;2023-04-16T12:12:46;9.50;99.90
9209;DHT22;4639;48.862;9.188;2023-04-16T12:15:11;9.50;99.90
9209;DHT22;4639;48.862;9.188;2023-04-16T12:17:37;9.60;99.90
9209;DHT22;4639;48.862;9.188;2023-04-16T12:20:13;9.50;99.90
9209;DHT22;4639;48.862;9.188;2023-04-16T12:22:44;9.60;99.90
9209;DHT22;4639;48.862;9.188;2023-04-16T12:25:11;9.60;99.90
9209;DHT22;4639;48.862;9.188;2023-04-16T12:27:55;9.50;99.90
9209;DHT22;4639;48.862;9.188;2023-04-16T12:30:23;9.50;99.90
9209;DHT22;4639;48.862;9.188;2023-04-16T12:32:52;9.50;99.90
9209;DHT22;4639;48.862;9.188;2023-04-16T12:35:32;9.40;99.90
9209;DHT22;4639;48.862;9.188;2023-04-16T12:37:58;9.40;99.90
9209;DHT22;4639;48.862;9.188;2023-04-16T12:40:24;9.40;99.90
9209;DHT22;4639;48.862;9.188;2023-04-16T12:42:50;9.40;99.90
9209;DHT22;4639;48.862;9.188;2023-04-16T12:45:16;9.40;99.90
9209;DHT22;4639;48.862;9.188;2023-04-16T12:47:41;9.40;99.90
9209;DHT22;4639;48.862;9.188;2023-04-16T12:50:07;9.70;99.90
9209;DHT22;4639;48.862;9.188;2023-04-16T12:52:33;9.60;99.90
9209;DHT22;4639;48.862;9.188;2023-04-16T12:55:03;9.60;99.90
9209;DHT22;4639;48.862;9.188;2023-04-16T12:57:29;9.60;99.90
9209;DHT22;4639;48.862;9.188;2023-04-16T12:59:55;9.60;99.90
9209;DHT22;4639;48.862;9.188;2023-04-16T13:02:21;9.80;99.90
9209;DHT22;4639;48.862;9.188;2023-04-16T13:04:48;9.70;99.90
9209;DHT22;4639;48.862;9.188;2023-04-16T13:07:14;9.60;99.90
9209;DHT22;4639;48.862;9.188;2023-04-16T13:09:39;9.60;99.90
9209;DHT22;4639;48.862;9.188;2023-04-16T13:12:06;9.60;99.90
9209;DHT22;4639;48.862;9.188;2023-04-16T13:14:31;9.50;99.90
9209;DHT22;4639;48.862;9.188;2023-04-16T13:16:57;9.50;99.90
9209;DHT22;4639;48.862;9.188;2023-04-16T13:19:22;9.50;99.90
9209;DHT22;4639;48.862;9.188;2023-04-16T13:21:48;9.50;99.90
9209;DHT22;4639;48.862;9.188;2023-04-16T13:24:13;9.50;99.90
9209;DHT22;4639;48.862;9.188;2023-04-16T13:26:39;9.50;99.90
9209;DHT22;4639;48.862;9.188;2023-04-16T13:29:04;9.60;99.90
9209;DHT22;4639;48.862;9.188;2023-04-16T13:31:30;9.70;99.90
9209;DHT22;4639;48.862;9.188;2023-04-16T13:33:56;9.70;99.90
9209;DHT22;4639;48.862;9.188;2023-04-16T13:36:21;9.70;99.90
9209;DHT22;4639;48.862;9.188;2023-04-16T13:38:47;9.70;99.90
9209;DHT22;4639;48.862;9.188;2023-04-16T13:41:12;9.70;99.90
9209;DHT22;4639;48.862;9.188;2023-04-16T13:43:38;9.70;99.90
9209;DHT22;4639;48.862;9.188;2023-04-16T13:46:03;9.70;99.90
9209;DHT22;4639;48.862;9.188;2023-04-16T13:48:29;9.70;99.90
9209;DHT22;4639;48.862;9.188;2023-04-16T13:50:55;9.80;99.90
9209;DHT22;4639;48.862;9.188;2023-04-16T13:53:20;9.80;99.90
9209;DHT22;4639;48.862;9.188;2023-04-16T13:55:46;9.80;99.90
9209;DHT22;4639;48.862;9.188;2023-04-16T13:58:14;9.70;99.90
9209;DHT22;4639;48.862;9.188;2023-04-16T14:00:40;9.70;99.90
9209;DHT22;4639;48.862;9.188;2023-04-16T14:03:06;9.70;99.90
9209;DHT22;4639;48.862;9.188;2023-04-16T14:05:32;9.70;99.90
9209;DHT22;4639;48.862;9.188;2023-04-16T14:07:57;9.70;99.90
9209;DHT22;4639;48.862;9.188;2023-04-16T14:10:23;9.70;99.90
9209;DHT22;4639;48.862;9.188;2023-04-16T14:12:48;9.70;99.90
9209;DHT22;4639;48.862;9.188;2023-04-16T14:15:15;9.80;99.90
9209;DHT22;4639;48.862;9.188;2023-04-16T14:17:43;9.70;99.90
9209;DHT22;4639;48.862;9.188;2023-04-16T14:20:11;9.70;99.90
9209;DHT22;4639;48.862;9.188;2023-04-16T14:22:37;9.70;99.90
9209;DHT22;4639;48.862;9.188;2023-04-16T14:25:03;9.60;99.90
9209;DHT22;4639;48.862;9.188;2023-04-16T14:27:29;9.60;99.90
9209;DHT22;4639;48.862;9.188;2023-04-16T14:29:55;9.70;99.90
9209;DHT22;4639;48.862;9.188;2023-04-16T14:32:21;9.70;99.90
9209;DHT22;4639;48.862;9.188;2023-04-16T14:34:46;9.60;99.90
9209;DHT22;4639;48.862;9.188;2023-04-16T14:37:12;9.70;99.90
9209;DHT22;4639;48.862;9.188;2023-04-16T14:39:38;9.70;99.90
9209;DHT22;4639;48.862;9.188;2023-04-16T14:42:04;9.70;99.90
9209;DHT22;4639;48.862;9.188;2023-04-16T14:44:31;9.70;99.90
9209;DHT22;4639;48.862;9.188;2023-04-16T14:46:56;9.60;99.90
9209;DHT22;4639;48.862;9.188;2023-04-16T14:49:22;9.70;99.90
9209;DHT22;4639;48.862;9.188;2023-04-16T14:51:48;9.70;99.90
9209;DHT22;4639;48.862;9.188;2023-04-16T14:54:13;9.70;99.90
9209;DHT22;4639;48.862;9.188;2023-04-16T14:56:39;9.60;99.90
9209;DHT22;4639;48.862;9.188;2023-04-16T14:59:05;9.60;99.90
9209;DHT22;4639;48.862;9.188;2023-04-16T15:01:32;9.50;99.90
9209;DHT22;4639;48.862;9.188;2023-04-16T15:03:58;9.60;99.90
9209;DHT22;4639;48.862;9.188;2023-04-16T15:06:24;9.70;99.90
9209;DHT22;4639;48.862;9.188;2023-04-16T15:08:51;9.70;99.90
9209;DHT22;4639;48.862;9.188;2023-04-16T15:11:16;9.70;99.90
9209;DHT22;4639;48.862;9.188;2023-04-16T15:13:42;9.70;99.90
9209;DHT22;4639;48.862;9.188;2023-04-16T15:16:08;9.80;99.90
9209;DHT22;4639;48.862;9.188;2023-04-16T15:18:33;9.70;99.90
9209;DHT22;4639;48.862;9.188;2023-04-16T15:20:59;9.80;99.90
9209;DHT22;4639;48.862;9.188;2023-04-16T15:23:24;9.80;99.90
9209;DHT22;4639;48.862;9.188;2023-04-16T15:25:50;9.70;99.90
9209;DHT22;4639;48.862;9.188;2023-04-16T15:28:16;9.80;99.90
9209;DHT22;4639;48.862;9.188;2023-04-16T15:30:42;9.70;99.90
9209;DHT22;4639;48.862;9.188;2023-04-16T15:33:07;9.70;99.90
9209;DHT22;4639;48.862;9.188;2023-04-16T15:35:36;9.90;99.90
9209;DHT22;4639;48.862;9.188;2023-04-16T15:38:08;9.60;99.90
9209;DHT22;4639;48.862;9.188;2023-04-16T15:40:34;9.60;99.90
9209;DHT22;4639;48.862;9.188;2023-04-16T15:43:01;9.60;99.90
9209;DHT22;4639;48.862;9.188;2023-04-16T15:45:26;9.70;99.90
9209;DHT22;4639;48.862;9.188;2023-04-16T15:47:53;9.70;99.90
9209;DHT22;4639;48.862;9.188;2023-04-16T15:50:19;9.80;99.90
9209;DHT22;4639;48.862;9.188;2023-04-16T15:52:45;9.70;99.90
9209;DHT22;4639;48.862;9.188;2023-04-16T15:55:11;9.70;99.90
9209;DHT22;4639;48.862;9.188;2023-04-16T15:57:37;9.70;99.90
9209;DHT22;4639;48.862;9.188;2023-04-16T16:00:03;9.70;99.90
9209;DHT22;4639;48.862;9.188;2023-04-16T16:02:40;9.70;99.90
9209;DHT22;4639;48.862;9.188;2023-04-16T16:05:09;9.80;99.90
9209;DHT22;4639;48.862;9.188;2023-04-16T16:07:35;9.80;99.90
9209;DHT22;4639;48.862;9.188;2023-04-16T16:10:01;9.80;99.90
9209;DHT22;4639;48.862;9.188;2023-04-16T16:12:26;9.80;99.90
9209;DHT22;4639;48.862;9.188;2023-04-16T16:14:52;9.70;99.90
9209;DHT22;4639;48.862;9.188;2023-04-16T16:17:18;9.70;99.90
9209;DHT22;4639;48.862;9.188;2023-04-16T16:19:44;9.80;99.90
9209;DHT22;4639;48.862;9.188;2023-04-16T16:22:10;9.70;99.90